sensor_id;sensor_type;location;lat;lon;timestamp;P1;durP1;ratioP1;P2;durP2;ratioP2
20421;SDS011;10370;53.102;18.034;2023-05-07T00:02:39;38.47;;;20.33;;
20421;SDS011;10370;53.102;18.034;2023-05-07T00:08:05;34.83;;;19.40;;
20421;SDS011;10370;53.102;18.034;2023-05-07T00:13:37;37.87;;;20.23;;
20421;SDS011;10370;53.102;18.034;2023-05-07T00:18:58;65.27;;;26.53;;
20421;SDS011;10370;53.102;18.034;2023-05-07T00:24:24;154.27;;;46.57;;
20421;SDS011;10370;53.102;18.034;2023-05-07T00:29:54;55.97;;;22.97;;
20421;SDS011;10370;53.102;18.034;2023-05-07T00:35:19;45.57;;;21.30;;
20421;SDS011;10370;53.102;18.034;2023-05-07T00:40:42;42.73;;;20.20;;
20421;SDS011;10370;53.102;18.034;2023-05-07T00:46:11;42.50;;;21.43;;
20421;SDS011;10370;53.102;18.034;2023-05-07T00:51:38;45.50;;;24.37;;
20421;SDS011;10370;53.102;18.034;2023-05-07T00:57:03;38.27;;;19.90;;
20421;SDS011;10370;53.102;18.034;2023-05-07T01:02:39;44.33;;;19.47;;
20421;SDS011;10370;53.102;18.034;2023-05-07T01:08:05;41.00;;;18.93;;
20421;SDS011;10370;53.102;18.034;2023-05-07T01:14:07;37.63;;;19.37;;
20421;SDS011;10370;53.102;18.034;2023-05-07T01:20:24;36.50;;;19.07;;
20421;SDS011;10370;53.102;18.034;2023-05-07T01:26:35;35.73;;;18.33;;
20421;SDS011;10370;53.102;18.034;2023-05-07T01:39:43;45.97;;;25.67;;
20421;SDS011;10370;53.102;18.034;2023-05-07T01:45:37;30.43;;;17.30;;
20421;SDS011;10370;53.102;18.034;2023-05-07T01:58:03;34.37;;;18.37;;
20421;SDS011;10370;53.102;18.034;2023-05-07T02:04:15;38.50;;;18.40;;
20421;SDS011;10370;53.102;18.034;2023-05-07T02:09:55;33.37;;;18.17;;
20421;SDS011;10370;53.102;18.034;2023-05-07T02:15:21;39.93;;;19.40;;
20421;SDS011;10370;53.102;18.034;2023-05-07T02:20:42;39.17;;;20.07;;
20421;SDS011;10370;53.102;18.034;2023-05-07T02:26:07;38.97;;;19.47;;
20421;SDS011;10370;53.102;18.034;2023-05-07T02:31:52;47.07;;;24.23;;
20421;SDS011;10370;53.102;18.034;2023-05-07T02:37:29;69.60;;;31.83;;
20421;SDS011;10370;53.102;18.034;2023-05-07T02:42:57;75.67;;;31.43;;
20421;SDS011;10370;53.102;18.034;2023-05-07T02:48:23;86.10;;;30.33;;
20421;SDS011;10370;53.102;18.034;2023-05-07T02:54:06;106.67;;;36.83;;
20421;SDS011;10370;53.102;18.034;2023-05-07T02:59:49;49.80;;;24.40;;
20421;SDS011;10370;53.102;18.034;2023-05-07T03:05:11;46.27;;;21.77;;
20421;SDS011;10370;53.102;18.034;2023-05-07T03:11:16;41.97;;;20.47;;
20421;SDS011;10370;53.102;18.034;2023-05-07T03:17:13;44.23;;;25.03;;
20421;SDS011;10370;53.102;18.034;2023-05-07T03:23:02;39.43;;;19.53;;
20421;SDS011;10370;53.102;18.034;2023-05-07T03:28:52;38.10;;;18.53;;
20421;SDS011;10370;53.102;18.034;2023-05-07T03:34:29;38.00;;;19.17;;
20421;SDS011;10370;53.102;18.034;2023-05-07T03:40:00;43.30;;;20.27;;
20421;SDS011;10370;53.102;18.034;2023-05-07T03:45:43;42.37;;;20.53;;
20421;SDS011;10370;53.102;18.034;2023-05-07T03:51:24;46.03;;;23.10;;
20421;SDS011;10370;53.102;18.034;2023-05-07T03:56:48;41.13;;;21.67;;
20421;SDS011;10370;53.102;18.034;2023-05-07T04:02:37;49.10;;;24.70;;
20421;SDS011;10370;53.102;18.034;2023-05-07T04:08:22;49.10;;;25.53;;
20421;SDS011;10370;53.102;18.034;2023-05-07T04:14:07;52.30;;;27.73;;
20421;SDS011;10370;53.102;18.034;2023-05-07T04:19:35;51.57;;;24.23;;
20421;SDS011;10370;53.102;18.034;2023-05-07T04:24:57;48.37;;;25.27;;
20421;SDS011;10370;53.102;18.034;2023-05-07T04:30:40;45.70;;;24.40;;
20421;SDS011;10370;53.102;18.034;2023-05-07T04:36:05;42.17;;;22.43;;
20421;SDS011;10370;53.102;18.034;2023-05-07T04:41:33;41.55;;;21.63;;
20421;SDS011;10370;53.102;18.034;2023-05-07T04:46:59;32.22;;;19.65;;
20421;SDS011;10370;53.102;18.034;2023-05-07T04:52:22;28.65;;;17.10;;
20421;SDS011;10370;53.102;18.034;2023-05-07T04:57:47;23.60;;;14.80;;
20421;SDS011;10370;53.102;18.034;2023-05-07T05:03:10;21.42;;;14.27;;
20421;SDS011;10370;53.102;18.034;2023-05-07T05:08:54;20.33;;;13.63;;
20421;SDS011;10370;53.102;18.034;2023-05-07T05:14:39;17.50;;;12.52;;
20421;SDS011;10370;53.102;18.034;2023-05-07T05:20:07;18.10;;;12.10;;
20421;SDS011;10370;53.102;18.034;2023-05-07T05:25:56;14.43;;;10.63;;
20421;SDS011;10370;53.102;18.034;2023-05-07T05:31:39;17.50;;;10.93;;
20421;SDS011;10370;53.102;18.034;2023-05-07T05:37:14;13.60;;;9.80;;
20421;SDS011;10370;53.102;18.034;2023-05-07T05:43:08;14.65;;;9.40;;
20421;SDS011;10370;53.102;18.034;2023-05-07T05:48:31;13.10;;;8.45;;
20421;SDS011;10370;53.102;18.034;2023-05-07T05:54:02;10.75;;;8.02;;
20421;SDS011;10370;53.102;18.034;2023-05-07T05:59:46;11.60;;;8.15;;
20421;SDS011;10370;53.102;18.034;2023-05-07T06:05:09;14.23;;;9.07;;
20421;SDS011;10370;53.102;18.034;2023-05-07T06:10:33;17.20;;;11.35;;
20421;SDS011;10370;53.102;18.034;2023-05-07T06:15:57;18.90;;;10.38;;
20421;SDS011;10370;53.102;18.034;2023-05-07T06:21:19;16.48;;;9.23;;
20421;SDS011;10370;53.102;18.034;2023-05-07T06:27:03;19.55;;;9.07;;
20421;SDS011;10370;53.102;18.034;2023-05-07T06:32:53;16.20;;;10.00;;
20421;SDS011;10370;53.102;18.034;2023-05-07T06:38:32;16.27;;;9.55;;
20421;SDS011;10370;53.102;18.034;2023-05-07T06:43:59;21.40;;;9.68;;
20421;SDS011;10370;53.102;18.034;2023-05-07T06:49:25;19.40;;;9.60;;
20421;SDS011;10370;53.102;18.034;2023-05-07T06:55:07;20.50;;;9.90;;
20421;SDS011;10370;53.102;18.034;2023-05-07T07:00:32;17.27;;;9.30;;
20421;SDS011;10370;53.102;18.034;2023-05-07T07:05:58;19.45;;;9.68;;
20421;SDS011;10370;53.102;18.034;2023-05-07T07:11:46;16.25;;;9.50;;
20421;SDS011;10370;53.102;18.034;2023-05-07T15:23:12;4.20;;;3.08;;
20421;SDS011;10370;53.102;18.034;2023-05-07T15:28:37;9.38;;;3.55;;
20421;SDS011;10370;53.102;18.034;2023-05-07T15:34:03;10.13;;;3.63;;
20421;SDS011;10370;53.102;18.034;2023-05-07T15:39:28;5.20;;;3.33;;
20421;SDS011;10370;53.102;18.034;2023-05-07T15:44:54;6.55;;;2.90;;
20421;SDS011;10370;53.102;18.034;2023-05-07T15:50:17;6.13;;;3.65;;
20421;SDS011;10370;53.102;18.034;2023-05-07T15:55:43;6.35;;;3.90;;
20421;SDS011;10370;53.102;18.034;2023-05-07T16:01:10;8.65;;;4.65;;
20421;SDS011;10370;53.102;18.034;2023-05-07T16:06:35;4.85;;;3.60;;
20421;SDS011;10370;53.102;18.034;2023-05-07T16:12:01;15.82;;;7.80;;
20421;SDS011;10370;53.102;18.034;2023-05-07T16:17:29;12.60;;;5.15;;
20421;SDS011;10370;53.102;18.034;2023-05-07T16:22:57;9.38;;;3.17;;
20421;SDS011;10370;53.102;18.034;2023-05-07T16:28:20;12.35;;;6.63;;
20421;SDS011;10370;53.102;18.034;2023-05-07T16:33:45;10.15;;;4.40;;
20421;SDS011;10370;53.102;18.034;2023-05-07T16:39:13;7.47;;;4.05;;
20421;SDS011;10370;53.102;18.034;2023-05-07T16:44:38;4.97;;;3.80;;
20421;SDS011;10370;53.102;18.034;2023-05-07T16:50:00;6.57;;;4.13;;
20421;SDS011;10370;53.102;18.034;2023-05-07T16:55:25;6.05;;;3.58;;
20421;SDS011;10370;53.102;18.034;2023-05-07T17:00:57;6.38;;;3.35;;
20421;SDS011;10370;53.102;18.034;2023-05-07T17:06:25;5.30;;;3.47;;
20421;SDS011;10370;53.102;18.034;2023-05-07T17:11:56;5.43;;;3.38;;
20421;SDS011;10370;53.102;18.034;2023-05-07T17:17:27;6.95;;;3.60;;
20421;SDS011;10370;53.102;18.034;2023-05-07T17:22:53;13.57;;;6.07;;
20421;SDS011;10370;53.102;18.034;2023-05-07T17:28:16;8.30;;;3.80;;
20421;SDS011;10370;53.102;18.034;2023-05-07T17:33:42;12.63;;;5.00;;
20421;SDS011;10370;53.102;18.034;2023-05-07T17:39:08;11.45;;;5.65;;
20421;SDS011;10370;53.102;18.034;2023-05-07T17:44:31;8.18;;;4.47;;
20421;SDS011;10370;53.102;18.034;2023-05-07T17:50:00;17.55;;;8.93;;
20421;SDS011;10370;53.102;18.034;2023-05-07T17:55:24;50.67;;;25.67;;
20421;SDS011;10370;53.102;18.034;2023-05-07T18:00:53;23.73;;;10.98;;
20421;SDS011;10370;53.102;18.034;2023-05-07T18:06:19;11.90;;;7.00;;
20421;SDS011;10370;53.102;18.034;2023-05-07T18:11:46;17.20;;;6.88;;
20421;SDS011;10370;53.102;18.034;2023-05-07T18:17:20;23.30;;;9.40;;
20421;SDS011;10370;53.102;18.034;2023-05-07T18:22:49;15.70;;;8.05;;
20421;SDS011;10370;53.102;18.034;2023-05-07T18:28:27;14.73;;;7.25;;
20421;SDS011;10370;53.102;18.034;2023-05-07T18:33:56;15.15;;;6.03;;
20421;SDS011;10370;53.102;18.034;2023-05-07T18:39:21;18.00;;;6.32;;
20421;SDS011;10370;53.102;18.034;2023-05-07T18:44:53;21.75;;;7.28;;
20421;SDS011;10370;53.102;18.034;2023-05-07T18:50:24;51.00;;;23.73;;
20421;SDS011;10370;53.102;18.034;2023-05-07T18:55:51;31.13;;;13.52;;
20421;SDS011;10370;53.102;18.034;2023-05-07T19:01:20;23.63;;;12.05;;
20421;SDS011;10370;53.102;18.034;2023-05-07T19:06:47;26.70;;;12.75;;
20421;SDS011;10370;53.102;18.034;2023-05-07T19:12:11;23.45;;;13.48;;
20421;SDS011;10370;53.102;18.034;2023-05-07T19:17:37;27.05;;;14.43;;
20421;SDS011;10370;53.102;18.034;2023-05-07T19:23:11;25.05;;;13.57;;
20421;SDS011;10370;53.102;18.034;2023-05-07T19:28:37;36.83;;;15.02;;
20421;SDS011;10370;53.102;18.034;2023-05-07T19:34:04;52.13;;;18.13;;
20421;SDS011;10370;53.102;18.034;2023-05-07T19:39:32;48.67;;;18.45;;
20421;SDS011;10370;53.102;18.034;2023-05-07T19:45:08;51.80;;;21.85;;
20421;SDS011;10370;53.102;18.034;2023-05-07T19:50:37;38.75;;;16.17;;
20421;SDS011;10370;53.102;18.034;2023-05-07T19:56:07;51.42;;;24.42;;
20421;SDS011;10370;53.102;18.034;2023-05-07T20:01:39;38.53;;;17.85;;
20421;SDS011;10370;53.102;18.034;2023-05-07T20:07:07;31.98;;;14.13;;
20421;SDS011;10370;53.102;18.034;2023-05-07T20:12:34;34.47;;;15.18;;
20421;SDS011;10370;53.102;18.034;2023-05-07T20:17:58;42.70;;;17.55;;
20421;SDS011;10370;53.102;18.034;2023-05-07T20:23:24;29.95;;;13.63;;
20421;SDS011;10370;53.102;18.034;2023-05-07T20:28:53;39.22;;;18.58;;
20421;SDS011;10370;53.102;18.034;2023-05-07T20:34:18;42.90;;;22.25;;
20421;SDS011;10370;53.102;18.034;2023-05-07T20:39:48;57.58;;;27.08;;
20421;SDS011;10370;53.102;18.034;2023-05-07T20:45:16;49.13;;;25.02;;
20421;SDS011;10370;53.102;18.034;2023-05-07T20:50:46;62.50;;;29.25;;
20421;SDS011;10370;53.102;18.034;2023-05-07T20:56:12;56.83;;;26.45;;
20421;SDS011;10370;53.102;18.034;2023-05-07T21:01:41;58.65;;;23.80;;
20421;SDS011;10370;53.102;18.034;2023-05-07T21:07:08;51.65;;;21.25;;
20421;SDS011;10370;53.102;18.034;2023-05-07T21:12:34;51.73;;;22.17;;
20421;SDS011;10370;53.102;18.034;2023-05-07T21:18:00;69.80;;;27.93;;
20421;SDS011;10370;53.102;18.034;2023-05-07T21:23:26;54.43;;;25.87;;
20421;SDS011;10370;53.102;18.034;2023-05-07T21:28:52;56.63;;;21.00;;
20421;SDS011;10370;53.102;18.034;2023-05-07T21:34:18;52.37;;;20.67;;
20421;SDS011;10370;53.102;18.034;2023-05-07T21:39:43;53.73;;;20.43;;
20421;SDS011;10370;53.102;18.034;2023-05-07T21:45:09;44.10;;;19.15;;
20421;SDS011;10370;53.102;18.034;2023-05-07T21:50:40;48.97;;;21.40;;
20421;SDS011;10370;53.102;18.034;2023-05-07T21:56:07;39.90;;;18.67;;
20421;SDS011;10370;53.102;18.034;2023-05-07T22:01:33;35.63;;;16.97;;
20421;SDS011;10370;53.102;18.034;2023-05-07T22:07:00;41.93;;;20.47;;
20421;SDS011;10370;53.102;18.034;2023-05-07T22:12:25;34.07;;;16.80;;
20421;SDS011;10370;53.102;18.034;2023-05-07T22:17:50;35.20;;;15.83;;
20421;SDS011;10370;53.102;18.034;2023-05-07T22:23:15;35.03;;;16.73;;
20421;SDS011;10370;53.102;18.034;2023-05-07T22:28:39;34.20;;;16.90;;
20421;SDS011;10370;53.102;18.034;2023-05-07T22:34:03;36.77;;;17.57;;
20421;SDS011;10370;53.102;18.034;2023-05-07T22:39:30;34.83;;;17.43;;
20421;SDS011;10370;53.102;18.034;2023-05-07T22:44:57;27.13;;;14.33;;
20421;SDS011;10370;53.102;18.034;2023-05-07T22:50:26;30.97;;;16.20;;
20421;SDS011;10370;53.102;18.034;2023-05-07T22:55:51;30.93;;;15.20;;
20421;SDS011;10370;53.102;18.034;2023-05-07T23:01:19;31.83;;;17.00;;
20421;SDS011;10370;53.102;18.034;2023-05-07T23:06:44;35.17;;;17.30;;
20421;SDS011;10370;53.102;18.034;2023-05-07T23:12:11;36.27;;;17.47;;
20421;SDS011;10370;53.102;18.034;2023-05-07T23:17:37;38.10;;;16.47;;
20421;SDS011;10370;53.102;18.034;2023-05-07T23:23:09;41.40;;;19.07;;
20421;SDS011;10370;53.102;18.034;2023-05-07T23:28:56;40.47;;;18.40;;
20421;SDS011;10370;53.102;18.034;2023-05-07T23:34:20;49.37;;;20.97;;
20421;SDS011;10370;53.102;18.034;2023-05-07T23:39:45;41.33;;;20.30;;
20421;SDS011;10370;53.102;18.034;2023-05-07T23:45:16;45.23;;;20.30;;
20421;SDS011;10370;53.102;18.034;2023-05-07T23:50:41;51.93;;;22.87;;
20421;SDS011;10370;53.102;18.034;2023-05-07T23:56:06;50.97;;;22.90;;
